Time;durP1;ratioP1;P1;durP2;ratioP2;P2;SDS_P1;SDS_P2;PMS_P1;PMS_P2;Temp;Humidity;BMP_temperature;BMP_pressure;BME280_temperature;BME280_humidity;BME280_pressure;Samples;Min_cycle;Max_cycle;Signal;HPM_P1;HPM_P2
2022/07/09 00:00:08;;;;;;;9.23;3.15;;;23.20;60.20;;;;;;5036682;28;20047;-62
2022/07/09 00:02:34;;;;;;;9.48;3.25;;;23.20;60.10;;;;;;5038631;28;20393;-63
2022/07/09 00:05:00;;;;;;;6.60;2.97;;;23.10;60.10;;;;;;5041984;28;20496;-62
2022/07/09 00:07:26;;;;;;;10.35;3.13;;;23.10;60.20;;;;;;5043267;28;20037;-63
2022/07/09 00:09:52;;;;;;;9.07;3.35;;;23.10;60.30;;;;;;5042536;28;20148;-62
2022/07/09 00:12:17;;;;;;;8.85;2.60;;;23.10;60.40;;;;;;5043226;28;20037;-62
2022/07/09 00:14:43;;;;;;;6.75;3.28;;;23.10;60.40;;;;;;5039517;28;20053;-61
2022/07/09 00:17:08;;;;;;;6.78;3.20;;;23.00;60.40;;;;;;5043592;28;20028;-62
2022/07/09 00:19:34;;;;;;;10.27;3.15;;;23.00;60.50;;;;;;5043647;28;20029;-63
2022/07/09 00:21:59;;;;;;;5.32;2.78;;;23.00;60.60;;;;;;5043178;28;20036;-62
2022/07/09 00:24:25;;;;;;;7.30;2.63;;;22.90;60.70;;;;;;5025124;28;20396;-61
2022/07/09 00:26:50;;;;;;;12.82;3.30;;;23.00;60.80;;;;;;5044175;28;20508;-61
2022/07/09 00:29:16;;;;;;;10.20;3.05;;;22.90;60.90;;;;;;5039935;28;20366;-62
2022/07/09 00:31:41;;;;;;;7.40;2.55;;;22.90;60.90;;;;;;5039774;28;20021;-61
2022/07/09 00:34:07;;;;;;;9.63;3.00;;;22.80;60.90;;;;;;5039871;28;20128;-62
2022/07/09 00:36:32;;;;;;;10.00;2.78;;;22.90;60.90;;;;;;5038920;28;20480;-62
2022/07/09 00:38:58;;;;;;;11.40;3.38;;;22.80;60.80;;;;;;5038224;28;20051;-62
2022/07/09 00:41:23;;;;;;;11.23;3.20;;;22.80;60.90;;;;;;5037169;28;20110;-62
2022/07/09 00:43:49;;;;;;;12.30;3.28;;;22.80;61.00;;;;;;5037022;28;20080;-61
2022/07/09 00:46:21;;;;;;;10.82;2.65;;;22.80;61.70;;;;;;5041059;28;20071;-62
2022/07/09 00:48:46;;;;;;;10.13;3.30;;;22.70;61.00;;;;;;5010642;28;20525;-62
2022/07/09 00:51:13;;;;;;;15.93;3.50;;;22.70;61.00;;;;;;5040142;28;20111;-62
2022/07/09 00:53:51;;;;;;;15.38;4.05;;;22.70;61.00;;;;;;5042220;28;20128;-63
2022/07/09 00:56:17;;;;;;;13.02;3.72;;;22.70;61.10;;;;;;5024712;28;20029;-62
2022/07/09 00:58:42;;;;;;;15.43;4.25;;;22.70;61.20;;;;;;5045796;28;20100;-63
2022/07/09 01:01:08;;;;;;;19.48;3.78;;;22.60;61.20;;;;;;5041787;28;20036;-62
2022/07/09 01:03:34;;;;;;;12.20;3.70;;;22.60;61.20;;;;;;5040839;28;20036;-61
2022/07/09 01:06:00;;;;;;;10.15;3.53;;;22.60;61.30;;;;;;5037628;28;20032;-62
2022/07/09 01:08:25;;;;;;;9.45;3.17;;;22.60;61.40;;;;;;5040649;28;20147;-62
2022/07/09 01:10:51;;;;;;;10.20;2.72;;;22.50;61.40;;;;;;5009798;28;20083;-62
2022/07/09 01:13:17;;;;;;;12.10;2.97;;;22.50;61.40;;;;;;5040160;28;20220;-63
2022/07/09 01:15:42;;;;;;;13.00;3.25;;;22.50;61.40;;;;;;5041730;28;20076;-63
2022/07/09 01:18:11;;;;;;;11.43;3.38;;;22.50;61.40;;;;;;5040241;28;20112;-62
2022/07/09 01:20:37;;;;;;;7.45;2.95;;;22.50;61.50;;;;;;5041171;28;20295;-62
2022/07/09 01:23:02;;;;;;;12.05;2.75;;;22.40;61.40;;;;;;5041480;28;20145;-63
2022/07/09 01:25:35;;;;;;;9.88;2.92;;;22.40;61.50;;;;;;5039866;28;20067;-61
2022/07/09 01:28:01;;;;;;;5.90;2.83;;;22.40;61.50;;;;;;5043122;28;20069;-62
2022/07/09 01:30:27;;;;;;;7.35;2.55;;;22.40;61.40;;;;;;5038628;28;20503;-61
2022/07/09 01:32:53;;;;;;;7.90;2.80;;;22.40;61.50;;;;;;5039170;28;20045;-61
2022/07/09 01:35:19;;;;;;;6.72;2.90;;;22.30;61.60;;;;;;5022969;28;20037;-63
2022/07/09 01:37:45;;;;;;;9.10;2.92;;;22.30;61.70;;;;;;5037972;28;20083;-63
2022/07/09 01:40:11;;;;;;;7.45;2.80;;;22.30;61.80;;;;;;5036855;28;20131;-64
2022/07/09 01:42:36;;;;;;;5.97;2.65;;;22.30;61.90;;;;;;5039894;28;20021;-62
2022/07/09 01:45:02;;;;;;;10.15;2.70;;;22.30;62.00;;;;;;5040945;28;20342;-62
2022/07/09 01:47:28;;;;;;;11.15;2.58;;;22.30;61.90;;;;;;5039872;28;20523;-63
2022/07/09 01:49:53;;;;;;;11.60;2.70;;;22.40;62.10;;;;;;5037835;28;20104;-61
2022/07/09 01:52:19;;;;;;;9.82;2.90;;;22.20;62.00;;;;;;5039152;28;20428;-63
2022/07/09 01:54:44;;;;;;;12.57;2.60;;;22.20;62.10;;;;;;5024798;28;20524;-62
2022/07/09 01:57:10;;;;;;;7.22;2.80;;;22.20;62.10;;;;;;5037837;28;20481;-62
2022/07/09 01:59:35;;;;;;;10.25;2.45;;;22.10;62.10;;;;;;5039040;28;20415;-61
2022/07/09 02:02:01;;;;;;;5.10;3.03;;;22.10;62.20;;;;;;5039357;28;20503;-62
2022/07/09 02:04:27;;;;;;;10.57;3.20;;;22.10;62.20;;;;;;5024129;28;20109;-62
2022/07/09 02:06:52;;;;;;;6.95;3.15;;;22.10;62.20;;;;;;5037341;28;20033;-62
2022/07/09 02:09:18;;;;;;;11.52;2.97;;;22.10;62.20;;;;;;5037833;28;20035;-61
2022/07/09 02:11:43;;;;;;;6.53;2.47;;;22.10;62.30;;;;;;5039029;28;20471;-61
2022/07/09 02:14:09;;;;;;;7.43;2.50;;;22.10;62.40;;;;;;5040558;28;20037;-62
2022/07/09 02:16:34;;;;;;;10.65;3.03;;;22.10;62.40;;;;;;5041057;28;20025;-63
2022/07/09 02:19:00;;;;;;;4.45;2.45;;;22.00;62.50;;;;;;5043759;28;20033;-61
2022/07/09 02:21:25;;;;;;;10.20;2.88;;;22.00;62.40;;;;;;5040739;28;20041;-63
2022/07/09 02:23:52;;;;;;;8.60;2.78;;;21.90;62.40;;;;;;5041949;28;20029;-61
2022/07/09 02:26:18;;;;;;;5.90;2.40;;;21.90;62.40;;;;;;5041632;28;20049;-61
2022/07/09 02:28:43;;;;;;;5.93;2.60;;;21.90;62.60;;;;;;5039381;28;20040;-62
2022/07/09 02:31:09;;;;;;;5.13;2.53;;;21.90;62.60;;;;;;5038112;28;20044;-62
2022/07/09 02:33:34;;;;;;;17.88;3.75;;;21.80;62.50;;;;;;5039573;28;20128;-62
2022/07/09 02:36:00;;;;;;;6.55;3.10;;;21.80;62.60;;;;;;5038174;28;20536;-62
2022/07/09 02:38:25;;;;;;;7.80;3.05;;;21.80;62.70;;;;;;5039494;28;20103;-62
2022/07/09 02:40:51;;;;;;;6.32;2.63;;;21.80;62.70;;;;;;5037260;28;20024;-62
2022/07/09 02:43:16;;;;;;;6.15;2.78;;;21.80;62.70;;;;;;5037881;28;20082;-61
2022/07/09 02:45:42;;;;;;;7.75;2.80;;;21.80;62.70;;;;;;5040589;28;20039;-62
2022/07/09 02:48:07;;;;;;;6.28;2.83;;;21.70;62.70;;;;;;5041537;28;20547;-61
2022/07/09 02:50:33;;;;;;;8.00;3.42;;;21.70;62.80;;;;;;5037929;28;20477;-62
2022/07/09 02:52:58;;;;;;;5.85;3.25;;;21.70;62.90;;;;;;5039039;28;20068;-61
2022/07/09 02:55:24;;;;;;;7.00;3.25;;;21.70;63.00;;;;;;5041779;28;20026;-62
2022/07/09 02:57:49;;;;;;;10.95;3.38;;;21.60;62.90;;;;;;5040278;28;20577;-63
2022/07/09 03:00:15;;;;;;;10.48;3.13;;;21.70;63.10;;;;;;5040277;28;20132;-61
2022/07/09 03:02:40;;;;;;;6.72;2.78;;;21.60;63.10;;;;;;5037592;28;20113;-63
2022/07/09 03:05:06;;;;;;;6.00;2.75;;;21.60;63.20;;;;;;5037857;28;20080;-63
2022/07/09 03:07:32;;;;;;;6.40;2.95;;;21.60;63.10;;;;;;5037985;28;20083;-62
2022/07/09 03:09:57;;;;;;;8.57;2.70;;;21.60;63.20;;;;;;5036745;28;20037;-61
2022/07/09 03:12:23;;;;;;;5.93;2.58;;;21.50;63.20;;;;;;5036057;28;20041;-62
2022/07/09 03:14:48;;;;;;;5.80;2.53;;;21.50;63.10;;;;;;5037413;28;20040;-61
2022/07/09 03:17:14;;;;;;;11.10;3.10;;;21.50;63.30;;;;;;5039465;28;20025;-62
2022/07/09 03:19:39;;;;;;;5.50;2.55;;;21.50;63.30;;;;;;5038022;28;20036;-62
2022/07/09 03:22:05;;;;;;;5.45;2.50;;;21.40;63.30;;;;;;5035992;28;20045;-62
2022/07/09 03:24:31;;;;;;;7.90;2.47;;;21.40;63.40;;;;;;5036550;28;20585;-62
2022/07/09 03:26:57;;;;;;;6.10;2.22;;;21.40;63.40;;;;;;5037205;28;20713;-63
2022/07/09 03:29:22;;;;;;;7.43;2.13;;;21.40;63.40;;;;;;5038811;28;20414;-61
2022/07/09 03:31:48;;;;;;;5.70;2.22;;;21.40;63.50;;;;;;5038522;28;20065;-62
2022/07/09 03:34:13;;;;;;;6.50;2.83;;;21.40;63.60;;;;;;5039875;28;20394;-62
2022/07/09 03:36:39;;;;;;;8.93;2.83;;;21.30;63.70;;;;;;5038904;28;20471;-62
2022/07/09 03:39:04;;;;;;;10.52;3.00;;;21.30;64.00;;;;;;5021881;28;20065;-62
2022/07/09 03:41:30;;;;;;;4.60;2.75;;;21.30;64.20;;;;;;5034866;28;20114;-61
2022/07/09 03:43:55;;;;;;;8.05;2.20;;;21.30;63.80;;;;;;5041550;28;20065;-62
2022/07/09 03:46:23;;;;;;;5.43;2.22;;;21.30;63.80;;;;;;5038675;28;20017;-62
2022/07/09 03:48:49;;;;;;;4.50;1.90;;;21.30;63.80;;;;;;5037800;28;20024;-61
2022/07/09 03:51:14;;;;;;;4.35;2.47;;;21.30;63.80;;;;;;5036053;28;20263;-62
2022/07/09 03:53:40;;;;;;;5.25;2.15;;;21.30;63.90;;;;;;5035954;28;20176;-62
2022/07/09 03:56:05;;;;;;;5.10;2.17;;;21.20;63.90;;;;;;5035870;28;20043;-62
2022/07/09 03:58:31;;;;;;;11.65;3.45;;;21.20;63.90;;;;;;5038533;28;20055;-62
2022/07/09 04:00:56;;;;;;;11.27;2.90;;;21.20;64.00;;;;;;5037774;28;20411;-62
2022/07/09 04:03:22;;;;;;;7.78;2.30;;;21.10;64.00;;;;;;5041624;28;20515;-62
2022/07/09 04:05:47;;;;;;;4.70;2.30;;;21.10;64.00;;;;;;5033965;28;20456;-62
2022/07/09 04:08:13;;;;;;;7.60;2.42;;;21.10;64.00;;;;;;5035610;28;20047;-62
2022/07/09 04:10:38;;;;;;;4.70;2.45;;;21.10;64.00;;;;;;5034542;28;20496;-61
2022/07/09 04:13:04;;;;;;;7.32;2.55;;;21.10;64.10;;;;;;5038380;28;20029;-62
2022/07/09 04:15:30;;;;;;;8.68;2.60;;;21.10;64.10;;;;;;5037477;28;20032;-61
2022/07/09 04:17:55;;;;;;;6.60;2.35;;;21.10;64.10;;;;;;5038078;28;20136;-62
2022/07/09 04:20:21;;;;;;;5.22;2.20;;;21.00;64.00;;;;;;5035439;28;20029;-62
2022/07/09 04:22:47;;;;;;;4.72;2.33;;;21.00;64.00;;;;;;5035815;28;20403;-61
2022/07/09 04:25:12;;;;;;;6.10;2.50;;;21.10;64.20;;;;;;5037296;28;20078;-61
2022/07/09 04:27:39;;;;;;;3.45;2.40;;;21.00;64.30;;;;;;5036896;28;20029;-62
2022/07/09 04:30:09;;;;;;;5.85;2.60;;;21.00;64.30;;;;;;5035557;28;20434;-61
2022/07/09 04:32:34;;;;;;;6.65;2.58;;;20.90;64.30;;;;;;5018721;28;20570;-63
2022/07/09 04:35:00;;;;;;;6.07;2.75;;;20.90;64.30;;;;;;5035404;28;20041;-62
2022/07/09 04:37:25;;;;;;;6.38;2.83;;;20.90;64.40;;;;;;5036474;28;20041;-62
2022/07/09 04:39:51;;;;;;;4.95;2.33;;;20.90;64.30;;;;;;5037210;28;20049;-62
2022/07/09 04:42:16;;;;;;;5.28;2.65;;;20.90;64.30;;;;;;5033338;28;20021;-62
2022/07/09 04:44:42;;;;;;;6.63;3.05;;;20.90;64.30;;;;;;5036824;28;20379;-61
2022/07/09 04:47:09;;;;;;;4.55;2.35;;;20.90;64.40;;;;;;5037248;28;20033;-62
2022/07/09 04:49:34;;;;;;;3.65;2.50;;;20.90;64.30;;;;;;5037978;28;20052;-61
2022/07/09 04:52:00;;;;;;;4.70;2.40;;;20.90;64.40;;;;;;5039771;28;20033;-62
2022/07/09 04:54:25;;;;;;;4.40;2.70;;;20.90;64.40;;;;;;5041756;28;20041;-61
2022/07/09 04:56:51;;;;;;;6.00;2.40;;;20.80;64.50;;;;;;5041744;28;20109;-61
2022/07/09 04:59:16;;;;;;;4.72;2.50;;;20.80;64.40;;;;;;5042736;28;20040;-61
2022/07/09 05:01:42;;;;;;;8.20;2.35;;;20.80;64.50;;;;;;5022843;28;20056;-61
2022/07/09 05:04:07;;;;;;;3.45;2.20;;;20.80;64.40;;;;;;5042576;28;20349;-61
2022/07/09 05:06:33;;;;;;;3.75;2.25;;;20.80;64.50;;;;;;5040444;28;20414;-62
2022/07/09 05:08:58;;;;;;;6.10;2.30;;;20.80;64.50;;;;;;5042690;28;20025;-61
2022/07/09 05:11:25;;;;;;;4.57;2.10;;;20.80;64.50;;;;;;5035774;28;20045;-62
2022/07/09 05:13:50;;;;;;;3.60;1.95;;;20.70;64.50;;;;;;5040577;28;20029;-63
2022/07/09 05:16:16;;;;;;;4.95;2.00;;;20.70;64.50;;;;;;5038756;28;20384;-61
2022/07/09 05:18:41;;;;;;;8.20;1.85;;;20.70;64.60;;;;;;5024342;28;20025;-62
2022/07/09 05:21:07;;;;;;;5.43;1.92;;;20.70;64.60;;;;;;5042356;28;20432;-61
2022/07/09 05:23:33;;;;;;;3.95;1.98;;;20.70;64.60;;;;;;5041636;28;20633;-62
2022/07/09 05:25:58;;;;;;;4.88;1.95;;;20.70;64.60;;;;;;5039732;28;20108;-61
2022/07/09 05:28:24;;;;;;;4.80;1.90;;;20.70;64.60;;;;;;5040835;28;20500;-61
2022/07/09 05:30:49;;;;;;;17.70;2.83;;;20.60;64.50;;;;;;5041583;28;20063;-61
2022/07/09 05:33:15;;;;;;;22.25;4.70;;;20.60;64.60;;;;;;5042607;28;20113;-62
2022/07/09 05:35:40;;;;;;;27.20;4.00;;;20.60;64.60;;;;;;5042603;28;20021;-61
2022/07/09 05:38:06;;;;;;;24.88;4.45;;;20.70;64.60;;;;;;5041036;28;20417;-62
2022/07/09 05:40:31;;;;;;;22.27;3.88;;;20.60;64.50;;;;;;5037761;28;20036;-62
2022/07/09 05:42:57;;;;;;;19.33;4.00;;;20.70;64.60;;;;;;5036052;28;20033;-62
2022/07/09 05:45:23;;;;;;;15.18;3.55;;;20.70;64.50;;;;;;5043575;28;20061;-62
2022/07/09 05:47:48;;;;;;;15.52;3.28;;;20.60;64.70;;;;;;5042714;28;20021;-63
2022/07/09 05:50:14;;;;;;;9.55;3.22;;;20.60;64.60;;;;;;5041233;28;20025;-61
2022/07/09 05:52:39;;;;;;;23.63;3.05;;;20.60;64.60;;;;;;5038903;28;20500;-63
2022/07/09 05:55:05;;;;;;;10.93;2.85;;;20.60;64.60;;;;;;5038483;28;20120;-62
2022/07/09 05:57:31;;;;;;;17.83;3.42;;;20.60;64.80;;;;;;5042996;28;20031;-61
2022/07/09 05:59:57;;;;;;;21.00;3.78;;;20.60;64.70;;;;;;5041497;28;20087;-61
2022/07/09 06:02:22;;;;;;;8.90;2.85;;;20.60;64.70;;;;;;5025631;28;20041;-62
2022/07/09 06:04:48;;;;;;;17.45;3.20;;;20.60;64.70;;;;;;5039107;28;20028;-61
2022/07/09 06:07:14;;;;;;;14.25;3.30;;;20.60;64.70;;;;;;5022009;28;20052;-62
2022/07/09 06:09:40;;;;;;;12.75;3.20;;;20.60;64.60;;;;;;5022366;28;20036;-62
2022/07/09 06:12:05;;;;;;;9.15;2.60;;;20.60;64.60;;;;;;5022758;28;20558;-61
2022/07/09 06:14:31;;;;;;;12.07;2.70;;;20.60;64.60;;;;;;5042613;28;20452;-62
2022/07/09 06:16:57;;;;;;;12.10;2.42;;;20.60;64.70;;;;;;5037353;28;20164;-62
2022/07/09 06:19:23;;;;;;;15.68;2.80;;;20.60;64.70;;;;;;5034954;28;20029;-62
2022/07/09 06:21:49;;;;;;;10.13;2.70;;;20.60;64.80;;;;;;5037274;28;20041;-62
2022/07/09 06:24:14;;;;;;;13.32;2.75;;;20.60;64.80;;;;;;5039107;28;20025;-63
2022/07/09 06:26:40;;;;;;;12.48;2.97;;;20.60;64.80;;;;;;5042884;28;20515;-62
2022/07/09 06:29:05;;;;;;;5.93;2.50;;;20.60;65.20;;;;;;5040130;28;20044;-62
2022/07/09 06:31:31;;;;;;;15.10;2.53;;;20.60;65.30;;;;;;5038696;28;20068;-62
2022/07/09 06:33:58;;;;;;;7.90;2.55;;;20.60;65.30;;;;;;5038694;28;20131;-62
2022/07/09 06:36:23;;;;;;;8.82;2.40;;;20.60;65.20;;;;;;5038530;28;20018;-62
2022/07/09 06:41:33;;;;;;;10.60;2.88;;;20.60;65.30;;;;;;5037764;28;20154;-62
2022/07/09 06:43:58;;;;;;;9.45;2.67;;;20.60;65.40;;;;;;5038147;28;20080;-61
2022/07/09 06:46:24;;;;;;;7.03;2.17;;;20.50;65.40;;;;;;5040389;28;21179;-61
2022/07/09 06:48:49;;;;;;;8.77;2.38;;;20.60;65.40;;;;;;5039517;28;20052;-62
2022/07/09 06:51:15;;;;;;;6.32;2.50;;;20.50;65.60;;;;;;5021621;28;20114;-61
2022/07/09 06:53:40;;;;;;;7.05;2.22;;;20.50;65.60;;;;;;5040707;28;20504;-61
2022/07/09 06:56:06;;;;;;;6.18;2.35;;;20.50;65.80;;;;;;5021966;28;20582;-62
2022/07/09 06:58:32;;;;;;;7.95;2.03;;;20.50;65.80;;;;;;5034432;28;20386;-61
2022/07/09 07:00:57;;;;;;;6.70;2.17;;;20.50;65.90;;;;;;5034178;28;20108;-62
2022/07/09 07:03:23;;;;;;;10.77;2.33;;;20.50;65.80;;;;;;5035102;28;20112;-61
2022/07/09 07:05:48;;;;;;;8.32;2.15;;;20.50;66.00;;;;;;5038338;28;20191;-61
2022/07/09 07:08:14;;;;;;;7.38;2.20;;;20.50;66.00;;;;;;5038964;28;20104;-61
2022/07/09 07:10:39;;;;;;;5.75;2.08;;;20.40;66.00;;;;;;5038843;28;20199;-63
2022/07/09 07:13:05;;;;;;;8.75;2.72;;;20.50;66.00;;;;;;5015523;28;20045;-60
2022/07/09 07:15:30;;;;;;;7.32;2.53;;;20.40;66.00;;;;;;5035894;28;20804;-62
2022/07/09 07:17:56;;;;;;;6.20;2.17;;;20.40;66.10;;;;;;5032101;28;20040;-61
2022/07/09 07:20:24;;;;;;;7.93;2.00;;;20.50;66.10;;;;;;5028612;28;20050;-62
2022/07/09 07:22:50;;;;;;;8.60;2.35;;;20.40;66.10;;;;;;5038640;28;20056;-61
2022/07/09 07:25:16;;;;;;;9.02;1.98;;;20.50;66.10;;;;;;5033206;28;20033;-62
2022/07/09 07:27:41;;;;;;;9.55;2.60;;;20.50;66.20;;;;;;5034317;28;20515;-62
2022/07/09 07:30:07;;;;;;;6.85;2.00;;;20.50;66.10;;;;;;5032184;28;20026;-61
2022/07/09 07:32:33;;;;;;;13.05;2.40;;;20.50;66.10;;;;;;5004359;28;20068;-61
2022/07/09 07:34:58;;;;;;;9.98;2.33;;;20.40;66.10;;;;;;5039294;28;20067;-62
2022/07/09 07:37:24;;;;;;;7.38;2.03;;;20.50;66.20;;;;;;5037201;28;21026;-61
2022/07/09 07:39:49;;;;;;;9.27;2.53;;;20.40;66.20;;;;;;5036240;28;20386;-61
2022/07/09 07:42:15;;;;;;;6.40;1.83;;;20.50;66.20;;;;;;5030731;28;20037;-61
2022/07/09 07:44:41;;;;;;;5.93;1.90;;;20.50;66.00;;;;;;5033038;28;20025;-61
2022/07/09 07:47:06;;;;;;;11.23;2.60;;;20.50;65.90;;;;;;5034636;28;20144;-61
2022/07/09 07:49:32;;;;;;;6.28;2.50;;;20.50;66.00;;;;;;5031790;28;20041;-62
2022/07/09 07:51:57;;;;;;;4.53;1.92;;;20.50;66.10;;;;;;5027876;28;20087;-62
2022/07/09 07:54:23;;;;;;;12.95;2.63;;;20.60;66.20;;;;;;5017501;28;20116;-61
2022/07/09 07:56:50;;;;;;;6.40;2.08;;;20.50;66.10;;;;;;5029047;28;20021;-61
2022/07/09 07:59:18;;;;;;;7.50;2.25;;;20.50;66.10;;;;;;5032440;28;20025;-61
2022/07/09 08:01:43;;;;;;;4.35;2.00;;;20.60;66.10;;;;;;5035414;28;20060;-61
2022/07/09 08:04:09;;;;;;;5.05;2.22;;;20.60;66.20;;;;;;5011858;28;20410;-61
2022/07/09 08:06:35;;;;;;;6.10;2.10;;;20.60;66.40;;;;;;5026014;28;20037;-62
2022/07/09 08:09:04;;;;;;;4.57;2.13;;;20.60;66.40;;;;;;5034666;28;20086;-62
2022/07/09 08:11:30;;;;;;;9.65;2.25;;;20.60;66.90;;;;;;5032590;28;20060;-62
2022/07/09 08:13:55;;;;;;;9.27;2.00;;;20.60;66.90;;;;;;5012991;28;20063;-62
2022/07/09 08:16:21;;;;;;;14.23;2.40;;;20.60;67.10;;;;;;5022640;28;20041;-62
2022/07/09 08:18:46;;;;;;;21.23;2.90;;;20.60;67.00;;;;;;5025450;28;20021;-63
2022/07/09 08:21:12;;;;;;;10.05;2.63;;;20.60;66.80;;;;;;5029430;28;20901;-62
2022/07/09 08:23:53;;;;;;;13.02;2.70;;;20.70;67.10;;;;;;5024070;28;20756;-62
2022/07/09 08:26:26;;;;;;;24.73;2.72;;;20.70;67.00;;;;;;5030207;28;20441;-62
2022/07/09 08:28:51;;;;;;;15.15;2.88;;;20.80;66.90;;;;;;5034113;28;20162;-61
2022/07/09 08:31:17;;;;;;;21.95;3.75;;;20.80;67.00;;;;;;5035542;28;20115;-66
2022/07/09 08:33:43;;;;;;;28.80;4.43;;;20.80;67.00;;;;;;5017964;28;20142;-61
2022/07/09 08:36:09;;;;;;;31.40;4.70;;;20.90;67.10;;;;;;5026148;28;20977;-61
2022/07/09 08:38:34;;;;;;;23.15;4.15;;;20.90;67.00;;;;;;5034614;28;20515;-62
2022/07/09 08:41:00;;;;;;;37.55;4.95;;;20.90;67.10;;;;;;5023750;28;20070;-61
2022/07/09 08:43:27;;;;;;;55.65;5.85;;;20.90;67.10;;;;;;5040552;28;20437;-62
2022/07/09 08:45:53;;;;;;;47.53;6.47;;;21.00;67.20;;;;;;5036868;28;20481;-62
2022/07/09 08:48:19;;;;;;;44.88;7.05;;;21.00;67.20;;;;;;5030877;28;20076;-61
2022/07/09 08:50:44;;;;;;;49.28;6.45;;;21.00;67.40;;;;;;5028301;28;20034;-62
2022/07/09 08:53:10;;;;;;;50.78;6.05;;;21.00;67.00;;;;;;5033828;28;20047;-62
2022/07/09 08:55:36;;;;;;;52.88;6.80;;;21.00;67.10;;;;;;5032526;28;20036;-61
2022/07/09 08:58:02;;;;;;;60.15;7.00;;;21.00;67.00;;;;;;5002553;28;20047;-62
2022/07/09 09:00:27;;;;;;;72.03;8.13;;;21.10;66.80;;;;;;5017470;28;20021;-61
2022/07/09 09:02:53;;;;;;;49.65;7.50;;;21.20;66.80;;;;;;5033183;28;20044;-61
2022/07/09 09:05:19;;;;;;;70.40;8.15;;;21.20;67.00;;;;;;5034232;28;20043;-61
2022/07/09 09:07:44;;;;;;;71.95;7.32;;;21.20;66.80;;;;;;5034106;28;20037;-61
2022/07/09 09:10:26;;;;;;;64.70;7.15;;;21.30;66.60;;;;;;5039212;28;20095;-61
2022/07/09 09:13:01;;;;;;;69.68;8.25;;;21.30;66.50;;;;;;5038304;28;20426;-62
2022/07/09 09:15:27;;;;;;;61.20;7.35;;;21.30;66.20;;;;;;5020848;28;20091;-62
2022/07/09 09:17:53;;;;;;;63.08;8.07;;;21.30;65.90;;;;;;5034693;28;20043;-61
2022/07/09 09:20:19;;;;;;;74.03;9.00;;;21.30;65.80;;;;;;5034849;28;20053;-61
2022/07/09 09:22:59;;;;;;;87.30;10.45;;;21.40;65.80;;;;;;5029473;28;20029;-62
2022/07/09 09:25:25;;;;;;;89.13;10.63;;;21.40;65.70;;;;;;5019074;28;20283;-62
2022/07/09 09:27:51;;;;;;;65.13;9.30;;;21.40;65.70;;;;;;4999410;28;20135;-62
2022/07/09 09:30:17;;;;;;;95.88;11.75;;;21.40;65.70;;;;;;5025628;28;20029;-61
2022/07/09 09:32:43;;;;;;;135.75;14.23;;;21.40;65.60;;;;;;5035115;28;20020;-62
2022/07/09 09:35:08;;;;;;;128.48;14.68;;;21.40;65.80;;;;;;5036862;28;20020;-62
2022/07/09 09:37:34;;;;;;;121.65;12.45;;;21.50;65.50;;;;;;5022431;28;20052;-62
2022/07/09 09:40:07;;;;;;;116.20;12.60;;;21.60;65.40;;;;;;5027567;28;20052;-62
2022/07/09 09:42:33;;;;;;;108.03;10.63;;;21.60;65.00;;;;;;5016022;28;20040;-62
2022/07/09 09:44:59;;;;;;;125.93;14.13;;;21.70;64.80;;;;;;5026650;28;20045;-61
2022/07/09 09:47:25;;;;;;;96.35;11.93;;;21.70;64.30;;;;;;5012780;28;20041;-61
2022/07/09 09:49:51;;;;;;;108.22;13.85;;;21.70;64.10;;;;;;5016514;28;20036;-61
2022/07/09 09:52:17;;;;;;;125.50;13.45;;;21.70;64.10;;;;;;5024528;28;20025;-62
2022/07/09 09:54:45;;;;;;;113.38;13.35;;;21.80;64.00;;;;;;5032041;28;20206;-63
2022/07/09 09:57:13;;;;;;;175.50;19.83;;;21.80;64.10;;;;;;4996937;28;20400;-62
2022/07/09 09:59:39;;;;;;;112.45;13.80;;;21.90;63.80;;;;;;5029602;28;20030;-63
2022/07/09 10:02:11;;;;;;;110.65;13.55;;;21.90;63.50;;;;;;5029718;28;20065;-61
2022/07/09 10:04:37;;;;;;;95.15;13.07;;;21.90;63.40;;;;;;5026998;28;20029;-62
2022/07/09 10:07:04;;;;;;;90.72;11.40;;;22.00;63.20;;;;;;5026028;28;20084;-63
2022/07/09 10:09:29;;;;;;;84.68;11.50;;;22.00;63.00;;;;;;5026978;28;20072;-62
2022/07/09 10:11:55;;;;;;;90.72;13.77;;;22.10;63.40;;;;;;5016880;28;20160;-62
2022/07/09 10:14:24;;;;;;;105.75;11.95;;;22.10;63.30;;;;;;5018720;28;20029;-62
2022/07/09 10:16:50;;;;;;;99.22;11.77;;;22.10;63.40;;;;;;5024917;28;20142;-62
2022/07/09 10:19:29;;;;;;;90.85;11.60;;;22.20;63.20;;;;;;5015894;28;20033;-62
2022/07/09 10:21:56;;;;;;;88.00;10.18;;;22.20;63.20;;;;;;5026913;28;20536;-62
2022/07/09 10:24:31;;;;;;;81.30;10.38;;;22.20;63.30;;;;;;5029826;28;20522;-63
2022/07/09 10:27:04;;;;;;;66.90;9.85;;;22.20;63.40;;;;;;5014348;28;20067;-62
2022/07/09 10:29:30;;;;;;;90.10;10.45;;;22.30;63.70;;;;;;5031863;28;20028;-62
2022/07/09 10:31:56;;;;;;;86.43;9.77;;;22.30;63.70;;;;;;5029055;28;20062;-63
2022/07/09 10:34:38;;;;;;;87.22;9.57;;;22.40;63.60;;;;;;5030792;28;20120;-63
2022/07/09 10:37:04;;;;;;;82.68;10.38;;;22.50;63.40;;;;;;5027886;28;20449;-62
2022/07/09 10:39:30;;;;;;;83.47;10.65;;;22.50;63.20;;;;;;5014791;28;20036;-62
2022/07/09 10:42:25;;;;;;;84.53;10.90;;;22.60;63.30;;;;;;5028232;28;20037;-63
2022/07/09 10:44:51;;;;;;;65.53;9.18;;;22.60;63.40;;;;;;5042846;28;20036;-63
2022/07/09 10:47:17;;;;;;;56.70;8.90;;;22.70;63.40;;;;;;5020648;28;20438;-62
2022/07/09 10:49:43;;;;;;;74.30;9.85;;;22.80;63.30;;;;;;5009267;28;20048;-63
2022/07/09 10:52:08;;;;;;;66.10;9.38;;;22.80;63.20;;;;;;5029502;28;20064;-62
2022/07/09 10:54:34;;;;;;;71.90;10.38;;;22.90;62.90;;;;;;5025141;28;20412;-62
2022/07/09 10:57:00;;;;;;;97.57;11.20;;;22.90;62.50;;;;;;5022145;28;20035;-62
2022/07/09 10:59:25;;;;;;;76.13;9.15;;;23.00;62.40;;;;;;5010650;28;20041;-61
2022/07/09 11:01:51;;;;;;;78.45;8.30;;;23.10;62.00;;;;;;5012115;28;20075;-62
2022/07/09 11:04:30;;;;;;;113.80;13.27;;;23.20;61.40;;;;;;5025609;28;20101;-61
2022/07/09 11:06:56;;;;;;;62.45;8.95;;;23.30;61.30;;;;;;5028942;28;20047;-62
2022/07/09 11:09:21;;;;;;;67.28;8.15;;;23.30;61.30;;;;;;5028538;28;20025;-63
2022/07/09 11:11:47;;;;;;;58.03;8.25;;;23.40;61.20;;;;;;5029882;28;20033;-63
2022/07/09 11:14:13;;;;;;;68.85;8.68;;;23.50;60.80;;;;;;5026888;28;20044;-63
2022/07/09 11:16:38;;;;;;;60.88;7.28;;;23.60;60.90;;;;;;5025333;28;20131;-62
2022/07/09 11:19:14;;;;;;;63.30;7.68;;;23.60;60.90;;;;;;5027062;28;20773;-62
2022/07/09 11:21:39;;;;;;;71.53;7.95;;;23.70;61.00;;;;;;5029147;28;20500;-61
2022/07/09 11:24:19;;;;;;;48.08;7.63;;;23.80;61.00;;;;;;5026966;28;20021;-62
2022/07/09 11:26:45;;;;;;;63.15;7.65;;;24.00;60.70;;;;;;5023747;28;20473;-62
2022/07/09 11:29:10;;;;;;;78.25;8.57;;;24.10;60.50;;;;;;5031861;28;20070;-62
2022/07/09 11:31:36;;;;;;;57.70;8.07;;;24.10;60.50;;;;;;5021033;28;20044;-62
2022/07/09 11:34:12;;;;;;;77.45;8.85;;;24.20;60.40;;;;;;5017172;28;20464;-61
2022/07/09 11:36:42;;;;;;;56.10;8.00;;;24.40;60.10;;;;;;5025129;28;20025;-62
2022/07/09 11:39:07;;;;;;;79.45;11.05;;;24.40;59.80;;;;;;5007690;28;20123;-62
2022/07/09 11:41:43;;;;;;;62.72;8.50;;;24.50;59.50;;;;;;5018981;28;20605;-61
2022/07/09 11:44:08;;;;;;;80.07;8.52;;;24.60;59.50;;;;;;5002100;28;20568;-61
2022/07/09 11:46:34;;;;;;;64.28;7.22;;;24.70;59.30;;;;;;5031612;28;20037;-62
2022/07/09 11:48:59;;;;;;;45.13;7.03;;;24.80;58.90;;;;;;5008115;28;20037;-61
2022/07/09 11:51:34;;;;;;;50.22;7.03;;;24.80;58.60;;;;;;5024017;28;20156;-62
2022/07/09 11:54:01;;;;;;;63.63;8.03;;;24.90;58.60;;;;;;5010350;28;20059;-63
2022/07/09 11:56:26;;;;;;;38.78;6.07;;;25.00;58.60;;;;;;5027623;28;20029;-62
2022/07/09 11:58:52;;;;;;;49.95;6.80;;;25.10;58.50;;;;;;5007289;28;20032;-62
2022/07/09 12:01:19;;;;;;;56.72;7.75;;;25.10;58.30;;;;;;5022895;28;20029;-62
2022/07/09 12:03:48;;;;;;;53.40;6.82;;;25.20;58.30;;;;;;5027933;28;20211;-63
2022/07/09 12:06:14;;;;;;;64.38;8.10;;;25.30;58.30;;;;;;5022739;28;20437;-62
2022/07/09 12:08:39;;;;;;;51.55;8.18;;;25.40;57.90;;;;;;5017677;28;20646;-61
2022/07/09 12:11:05;;;;;;;50.60;6.00;;;25.40;57.70;;;;;;5007413;28;20036;-63
2022/07/09 12:13:30;;;;;;;51.92;6.53;;;25.50;57.30;;;;;;5023110;28;20459;-62
2022/07/09 12:15:56;;;;;;;39.70;5.53;;;25.60;57.40;;;;;;5023772;28;20073;-62
2022/07/09 12:18:22;;;;;;;37.50;5.50;;;25.60;57.20;;;;;;5029657;28;20826;-63
2022/07/09 12:20:47;;;;;;;42.00;5.28;;;25.70;56.70;;;;;;5026640;28;20033;-63
2022/07/09 12:23:13;;;;;;;56.63;6.47;;;25.80;56.80;;;;;;5008914;28;20033;-61
2022/07/09 12:25:39;;;;;;;31.10;4.55;;;25.80;56.10;;;;;;5028489;28;20060;-61
2022/07/09 12:28:05;;;;;;;30.52;5.93;;;25.90;56.40;;;;;;5030541;28;20045;-62
2022/07/09 12:30:30;;;;;;;32.67;3.92;;;26.00;56.20;;;;;;5036366;28;20037;-63
2022/07/09 12:32:58;;;;;;;42.40;4.65;;;26.00;56.00;;;;;;5034931;28;20032;-63
2022/07/09 12:35:24;;;;;;;32.08;5.13;;;26.10;55.60;;;;;;5015893;28;20048;-62
2022/07/09 12:37:49;;;;;;;23.45;4.25;;;26.20;55.50;;;;;;5031925;28;20071;-63